createdAt,value
2019-04-05T00:01:26.725Z,14.10
2019-04-05T00:03:57.078Z,14.00
2019-04-05T00:06:28.277Z,14.00
2019-04-05T00:08:59.278Z,14.00
2019-04-05T00:11:28.908Z,14.00
2019-04-05T00:14:01.248Z,14.00
2019-04-05T00:16:32.414Z,14.00
2019-04-05T00:19:01.994Z,14.00
2019-04-05T00:21:31.596Z,14.00
2019-04-05T00:24:01.186Z,14.00
2019-04-05T00:26:31.062Z,14.00
2019-04-05T00:29:00.950Z,14.00
2019-04-05T00:31:32.160Z,14.00
2019-04-05T00:34:03.440Z,14.00
2019-04-05T00:36:32.980Z,13.90
2019-04-05T00:39:04.134Z,14.00
2019-04-05T00:41:33.710Z,14.00
2019-04-05T00:44:05.193Z,13.90
2019-04-05T00:46:34.758Z,13.90
2019-04-05T00:49:04.599Z,13.90
2019-04-05T00:51:34.186Z,13.90
2019-04-05T00:54:03.740Z,13.90
2019-04-05T00:56:34.397Z,13.90
2019-04-05T00:59:04.668Z,13.90
2019-04-05T01:01:35.236Z,13.90
2019-04-05T01:04:06.489Z,13.90
2019-04-05T01:06:36.859Z,13.90
2019-04-05T01:09:08.569Z,13.80
2019-04-05T01:11:42.916Z,13.90
2019-04-05T01:14:12.451Z,13.90
2019-04-05T01:16:42.037Z,13.90
2019-04-05T01:19:11.617Z,13.80
2019-04-05T01:21:41.287Z,13.80
2019-04-05T01:24:11.471Z,13.80
2019-04-05T01:26:42.009Z,13.80
2019-04-05T01:29:11.652Z,13.90
2019-04-05T01:31:41.179Z,13.80
2019-04-05T01:34:10.863Z,13.80
2019-04-05T01:36:40.517Z,13.80
2019-04-05T01:39:10.809Z,13.80
2019-04-05T01:41:40.356Z,13.70
2019-04-05T01:44:10.228Z,13.70
2019-04-05T01:46:39.890Z,13.70
2019-04-05T01:49:09.471Z,13.70
2019-04-05T01:51:39.797Z,13.70
2019-04-05T01:54:11.245Z,13.70
2019-04-05T01:56:41.052Z,13.70
2019-04-05T01:59:10.682Z,13.70
2019-04-05T02:01:43.241Z,13.70
2019-04-05T02:04:13.037Z,13.70
2019-04-05T02:06:42.701Z,13.70
2019-04-05T02:09:12.608Z,13.70
2019-04-05T02:11:43.164Z,13.70
2019-04-05T02:14:14.315Z,13.70
2019-04-05T02:16:43.949Z,13.60
2019-04-05T02:19:13.568Z,13.60
2019-04-05T02:21:43.192Z,13.70
2019-04-05T02:24:12.789Z,13.70
2019-04-05T02:26:42.641Z,13.70
2019-04-05T02:29:13.876Z,13.60
2019-04-05T02:31:44.445Z,13.60
2019-04-05T02:34:14.057Z,13.60
2019-04-05T02:36:43.669Z,13.60
2019-04-05T02:39:13.209Z,13.60
2019-04-05T02:41:42.815Z,13.60
2019-04-05T02:44:12.375Z,13.60
2019-04-05T02:46:42.055Z,13.60
2019-04-05T02:49:11.722Z,13.60
2019-04-05T02:51:41.306Z,13.60
2019-04-05T02:54:10.898Z,13.60
2019-04-05T02:56:40.975Z,13.60
2019-04-05T02:59:10.568Z,13.50
2019-04-05T03:01:40.499Z,13.60
2019-04-05T03:04:10.106Z,13.50
2019-04-05T03:06:39.936Z,13.50
2019-04-05T03:09:09.473Z,13.50
2019-04-05T03:11:39.039Z,13.50
2019-04-05T03:14:08.929Z,13.50
2019-04-05T03:16:43.729Z,13.50
2019-04-05T03:19:19.597Z,13.50
2019-04-05T03:21:54.192Z,13.50
2019-04-05T03:24:28.872Z,13.50
2019-04-05T03:27:05.513Z,13.50
2019-04-05T03:29:35.122Z,13.50
2019-04-05T03:32:04.750Z,13.50
2019-04-05T03:34:34.426Z,13.40
2019-04-05T03:37:04.079Z,13.50
2019-04-05T03:39:33.716Z,13.40
2019-04-05T03:42:03.463Z,13.40
2019-04-05T03:44:33.305Z,13.40
2019-04-05T03:47:02.969Z,13.40
2019-04-05T03:49:32.507Z,13.40
2019-04-05T03:52:05.299Z,13.40
2019-04-05T03:54:35.233Z,13.40
2019-04-05T03:57:04.762Z,13.40
2019-04-05T03:59:34.352Z,13.40
2019-04-05T04:02:03.991Z,13.40
2019-04-05T04:04:33.556Z,13.40
2019-04-05T04:07:03.132Z,13.40
2019-04-05T04:09:32.709Z,13.40
2019-04-05T04:12:02.746Z,13.40
2019-04-05T04:14:32.322Z,13.40
2019-04-05T04:17:12.336Z,13.40
2019-04-05T04:19:33.175Z,13.40
2019-04-05T04:22:27.278Z,13.30
2019-04-05T04:24:57.353Z,13.40
2019-04-05T04:27:26.902Z,13.30
2019-04-05T04:30:00.246Z,13.30
2019-04-05T04:32:28.359Z,13.30
2019-04-05T04:34:58.121Z,13.30
2019-04-05T04:37:27.699Z,13.30
2019-04-05T04:39:57.285Z,13.30
2019-04-05T04:42:27.526Z,13.30
2019-04-05T04:45:11.030Z,13.30
2019-04-05T04:47:29.079Z,13.30
2019-04-05T04:49:58.648Z,13.30
2019-04-05T04:52:31.237Z,13.30
2019-04-05T04:55:00.622Z,13.30
2019-04-05T04:57:30.204Z,13.30
2019-04-05T04:59:59.801Z,13.30
2019-04-05T05:02:29.514Z,13.20
2019-04-05T05:05:00.729Z,13.20
2019-04-05T05:07:30.271Z,13.20
2019-04-05T05:10:01.847Z,13.20
2019-04-05T05:12:31.177Z,13.20
2019-04-05T05:15:02.411Z,13.20
2019-04-05T05:17:38.494Z,13.20
2019-04-05T05:20:03.315Z,13.20
2019-04-05T05:22:32.931Z,13.20
2019-04-05T05:25:02.592Z,13.20
2019-04-05T05:27:32.195Z,13.20
2019-04-05T05:30:01.819Z,13.20
2019-04-05T05:32:31.392Z,13.20
2019-04-05T05:35:02.214Z,13.20
2019-04-05T05:37:32.984Z,13.10
2019-04-05T05:40:02.677Z,13.20
2019-04-05T05:42:32.366Z,13.20
2019-04-05T05:45:02.222Z,13.20
2019-04-05T05:47:31.866Z,13.20
2019-04-05T05:50:01.462Z,13.10
2019-04-05T05:52:31.087Z,13.10
2019-04-05T05:55:00.926Z,13.10
2019-04-05T05:57:32.980Z,13.10
2019-04-05T06:00:02.643Z,13.00
2019-04-05T06:02:32.335Z,13.00
2019-04-05T06:05:01.948Z,13.10
2019-04-05T06:07:32.364Z,13.00
2019-04-05T06:10:05.214Z,13.00
2019-04-05T06:12:35.797Z,13.00
2019-04-05T06:15:06.453Z,13.00
2019-04-05T06:17:37.913Z,13.00
2019-04-05T06:20:07.659Z,13.00
2019-04-05T06:22:37.329Z,13.10
2019-04-05T06:25:08.543Z,13.10
2019-04-05T06:27:39.632Z,13.00
2019-04-05T06:30:09.312Z,13.00
2019-04-05T06:32:38.920Z,13.00
2019-04-05T06:35:08.509Z,13.00
2019-04-05T06:37:38.127Z,13.00
2019-04-05T06:40:10.389Z,13.00
2019-04-05T06:42:40.091Z,13.00
2019-04-05T06:45:09.734Z,13.00
2019-04-05T06:47:39.299Z,13.00
2019-04-05T06:50:08.912Z,13.00
2019-04-05T06:52:38.517Z,13.10
2019-04-05T06:55:08.136Z,13.10
2019-04-05T06:57:37.744Z,13.10
2019-04-05T07:00:08.159Z,13.10
2019-04-05T07:02:37.834Z,13.00
2019-04-05T07:05:07.423Z,13.10
2019-04-05T07:07:37.060Z,13.10
2019-04-05T07:10:06.730Z,13.10
2019-04-05T07:12:39.423Z,13.10
2019-04-05T07:15:08.981Z,13.10
2019-04-05T07:17:41.011Z,13.10
2019-04-05T07:20:10.670Z,13.10
2019-04-05T07:22:41.670Z,13.10
2019-04-05T07:25:11.299Z,13.10
2019-04-05T07:27:40.885Z,13.10
2019-04-05T07:30:10.453Z,13.20
2019-04-05T07:32:40.059Z,13.20
2019-04-05T07:35:09.747Z,13.20
2019-04-05T07:37:40.104Z,13.20
2019-04-05T07:40:09.654Z,13.20
2019-04-05T07:42:39.273Z,13.20
2019-04-05T07:45:08.890Z,13.30
2019-04-05T07:47:38.588Z,13.30
2019-04-05T07:50:08.253Z,13.30
2019-04-05T07:52:38.923Z,13.40
2019-04-05T07:55:08.552Z,13.40
2019-04-05T07:57:38.146Z,13.40
2019-04-05T08:00:09.717Z,13.40
2019-04-05T08:02:39.252Z,13.50
2019-04-05T08:05:09.759Z,13.50
2019-04-05T08:07:43.727Z,13.50
2019-04-05T08:10:16.138Z,13.50
2019-04-05T08:12:45.735Z,13.60
2019-04-05T08:15:15.370Z,13.60
2019-04-05T08:17:44.966Z,13.60
2019-04-05T08:20:14.541Z,13.70
2019-04-05T08:22:44.145Z,13.70
2019-04-05T08:25:13.702Z,13.70
2019-04-05T08:27:43.275Z,13.70
2019-04-05T08:30:12.871Z,13.70
2019-04-05T08:32:42.455Z,13.80
2019-04-05T08:35:12.065Z,13.80
2019-04-05T08:37:41.666Z,13.80
2019-04-05T08:40:11.254Z,13.90
2019-04-05T08:42:40.856Z,13.90
2019-04-05T08:45:10.581Z,13.90
2019-04-05T08:47:40.219Z,13.90
2019-04-05T08:50:09.858Z,14.00
2019-04-05T08:52:39.494Z,14.00
2019-04-05T08:55:09.211Z,14.10
2019-04-05T08:57:40.243Z,14.00
2019-04-05T09:00:11.097Z,14.10
2019-04-05T09:02:40.800Z,14.10
2019-04-05T09:05:10.354Z,14.20
2019-04-05T09:07:39.978Z,14.10
2019-04-05T09:10:12.396Z,14.20
2019-04-05T09:12:41.988Z,14.30
2019-04-05T09:15:11.630Z,14.30
2019-04-05T09:17:41.180Z,14.30
2019-04-05T09:20:10.788Z,14.40
2019-04-05T09:22:40.406Z,14.40
2019-04-05T09:25:10.026Z,14.40
2019-04-05T09:27:41.238Z,14.40
2019-04-05T09:30:10.852Z,14.40
2019-04-05T09:32:41.230Z,14.50
2019-04-05T09:35:10.813Z,14.50
2019-04-05T09:37:40.538Z,14.50
2019-04-05T09:40:11.875Z,14.60
2019-04-05T09:42:42.470Z,14.60
2019-04-05T09:45:12.032Z,14.60
2019-04-05T09:47:41.710Z,14.70
2019-04-05T09:50:11.338Z,14.70
2019-04-05T09:52:58.794Z,14.70
2019-04-05T09:55:28.392Z,14.80
2019-04-05T09:58:00.494Z,14.80
2019-04-05T10:00:30.083Z,14.80
2019-04-05T10:02:59.693Z,14.80
2019-04-05T10:05:29.361Z,14.90
2019-04-05T10:07:58.991Z,14.90
2019-04-05T10:10:28.580Z,14.90
2019-04-05T10:12:58.306Z,14.90
2019-04-05T10:15:27.885Z,14.90
2019-04-05T10:17:57.522Z,15.00
2019-04-05T10:20:28.732Z,15.00
2019-04-05T10:22:58.320Z,15.10
2019-04-05T10:25:27.963Z,15.10
2019-04-05T10:27:57.639Z,15.20
2019-04-05T10:30:27.200Z,15.20
2019-04-05T10:32:56.862Z,15.20
2019-04-05T10:35:26.494Z,15.30
2019-04-05T10:37:58.359Z,15.30
2019-04-05T10:40:27.372Z,15.30
2019-04-05T10:42:57.339Z,15.30
2019-04-05T10:45:26.955Z,15.40
2019-04-05T10:47:56.550Z,15.40
2019-04-05T10:50:26.160Z,15.40
2019-04-05T10:52:55.723Z,15.40
2019-04-05T10:55:25.586Z,15.50
2019-04-05T10:57:55.629Z,15.50
2019-04-05T11:00:25.169Z,15.50
2019-04-05T11:02:54.785Z,15.60
2019-04-05T11:05:24.440Z,15.60
2019-04-05T11:07:54.072Z,15.60
2019-04-05T11:10:23.649Z,15.70
2019-04-05T11:12:53.255Z,15.70
2019-04-05T11:15:22.914Z,15.70
2019-04-05T11:17:52.516Z,15.70
2019-04-05T11:20:22.354Z,15.80
2019-04-05T11:22:52.737Z,15.80
2019-04-05T11:25:22.389Z,15.80
2019-04-05T11:27:52.073Z,15.90
2019-04-05T11:30:44.325Z,15.90
2019-04-05T11:33:13.936Z,15.90
2019-04-05T11:35:43.700Z,15.90
2019-04-05T11:38:14.406Z,16.00
2019-04-05T11:40:45.032Z,16.00
2019-04-05T11:43:14.650Z,16.00
2019-04-05T11:45:44.217Z,16.00
2019-04-05T11:48:13.818Z,16.10
2019-04-05T11:50:43.428Z,16.00
2019-04-05T11:53:13.065Z,16.10
2019-04-05T11:55:42.645Z,16.10
2019-04-05T11:58:12.294Z,16.10
2019-04-05T12:00:57.640Z,16.20
2019-04-05T12:03:27.605Z,16.20
2019-04-05T12:06:03.124Z,16.20
2019-04-05T12:08:33.451Z,16.20
2019-04-05T12:11:03.169Z,16.30
2019-04-05T12:13:33.605Z,16.30
2019-04-05T12:16:03.725Z,16.30
2019-04-05T12:18:35.430Z,16.30
2019-04-05T12:21:05.905Z,16.40
2019-04-05T12:23:38.496Z,16.40
2019-04-05T12:26:08.145Z,16.40
2019-04-05T12:28:37.819Z,16.40
2019-04-05T12:31:08.451Z,16.40
2019-04-05T12:33:38.075Z,16.40
2019-04-05T12:36:07.697Z,16.40
2019-04-05T12:38:40.024Z,16.50
2019-04-05T12:41:11.043Z,16.50
2019-04-05T12:43:43.675Z,16.50
2019-04-05T12:46:15.105Z,16.50
2019-04-05T12:48:46.364Z,16.50
2019-04-05T12:51:17.071Z,16.50
2019-04-05T12:53:46.772Z,16.60
2019-04-05T12:56:16.335Z,16.60
2019-04-05T12:58:46.108Z,16.60
2019-04-05T13:01:15.722Z,16.60
2019-04-05T13:03:46.060Z,16.60
2019-04-05T13:06:15.668Z,16.60
2019-04-05T13:08:45.406Z,16.60
2019-04-05T13:11:15.039Z,16.60
2019-04-05T13:13:45.686Z,16.60
2019-04-05T13:16:15.338Z,16.70
2019-04-05T13:18:47.651Z,16.70
2019-04-05T13:21:17.309Z,16.70
2019-04-05T13:23:47.071Z,16.70
2019-04-05T13:26:16.672Z,16.70
2019-04-05T13:28:48.287Z,16.70
2019-04-05T13:31:18.873Z,16.70
2019-04-05T13:33:49.686Z,16.70
2019-04-05T13:36:19.528Z,16.70
2019-04-05T13:38:54.799Z,16.80
2019-04-05T13:41:20.565Z,16.80
2019-04-05T13:43:50.237Z,16.80
2019-04-05T13:46:22.730Z,16.80
2019-04-05T13:48:51.175Z,16.80
2019-04-05T13:51:27.914Z,16.80
2019-04-05T13:53:52.586Z,16.80
2019-04-05T13:56:23.000Z,16.80
2019-04-05T13:58:52.629Z,16.90
2019-04-05T14:01:22.382Z,16.90
2019-04-05T14:03:53.183Z,16.90
2019-04-05T14:06:22.847Z,16.90
2019-04-05T14:08:54.255Z,16.90
2019-04-05T14:11:25.915Z,16.90
2019-04-05T14:13:55.452Z,17.00
2019-04-05T14:16:25.199Z,17.00
2019-04-05T14:18:54.909Z,17.00
2019-04-05T14:21:24.590Z,17.00
2019-04-05T14:23:55.415Z,17.00
2019-04-05T14:26:25.144Z,17.00
2019-04-05T14:28:56.873Z,17.00
2019-04-05T14:31:27.499Z,17.00
2019-04-05T14:33:58.015Z,17.00
2019-04-05T14:36:27.635Z,17.00
2019-04-05T14:38:57.517Z,17.00
2019-04-05T14:41:27.158Z,17.00
2019-04-05T14:43:58.337Z,17.00
2019-04-05T14:46:29.259Z,17.00
2019-04-05T14:49:00.629Z,17.00
2019-04-05T14:51:30.636Z,17.00
2019-04-05T14:54:03.807Z,17.00
2019-04-05T14:56:35.166Z,17.00
2019-04-05T14:59:05.227Z,17.00
2019-04-05T15:01:35.110Z,17.00
2019-04-05T15:04:05.667Z,17.00
2019-04-05T15:06:35.392Z,17.00
2019-04-05T15:09:06.556Z,17.00
2019-04-05T15:11:36.391Z,17.00
2019-04-05T15:14:06.148Z,17.00
2019-04-05T15:16:37.494Z,17.00
2019-04-05T15:19:07.202Z,17.00
2019-04-05T15:21:38.845Z,17.00
2019-04-05T15:24:08.905Z,16.90
2019-04-05T15:26:42.393Z,17.00
2019-04-05T15:29:12.081Z,16.90
2019-04-05T15:31:41.866Z,17.00
2019-04-05T15:34:11.581Z,17.00
2019-04-05T15:36:41.354Z,16.90
2019-04-05T15:39:11.317Z,17.00
2019-04-05T15:41:41.182Z,17.00
2019-04-05T15:44:11.005Z,16.90
2019-04-05T15:46:40.839Z,17.00
2019-04-05T15:49:10.637Z,16.90
2019-04-05T15:51:40.376Z,17.00
2019-04-05T15:54:10.083Z,16.90
2019-04-05T15:56:39.762Z,16.90
2019-04-05T15:59:09.562Z,16.90
2019-04-05T16:01:39.234Z,16.90
2019-04-05T16:04:08.876Z,16.90
2019-04-05T16:06:39.134Z,16.90
2019-04-05T16:09:11.722Z,16.90
2019-04-05T16:11:41.460Z,16.90
2019-04-05T16:14:11.266Z,16.90
2019-04-05T16:16:41.034Z,16.90
2019-04-05T16:19:10.769Z,16.90
2019-04-05T16:21:40.587Z,16.90
2019-04-05T16:24:10.288Z,16.90
2019-04-05T16:26:39.921Z,16.90
2019-04-05T16:29:09.527Z,16.90
2019-04-05T16:31:39.208Z,16.90
2019-04-05T16:34:08.898Z,16.80
2019-04-05T16:36:38.529Z,16.90
2019-04-05T16:39:12.290Z,16.90
2019-04-05T16:41:41.974Z,16.90
2019-04-05T16:44:11.694Z,16.80
2019-04-05T16:46:41.280Z,16.80
2019-04-05T16:49:10.903Z,16.80
2019-04-05T16:51:40.894Z,16.80
2019-04-05T16:54:10.508Z,16.80
2019-04-05T16:56:40.192Z,16.80
2019-04-05T16:59:09.797Z,16.80
2019-04-05T17:01:39.470Z,16.80
2019-04-05T17:04:09.158Z,16.80
2019-04-05T17:06:38.838Z,16.80
2019-04-05T17:09:09.628Z,16.80
2019-04-05T17:11:39.389Z,16.80
2019-04-05T17:14:08.989Z,16.80
2019-04-05T17:16:38.732Z,16.80
2019-04-05T17:19:08.379Z,16.70
2019-04-05T17:21:38.093Z,16.70
2019-04-05T17:24:09.338Z,16.70
2019-04-05T17:26:38.890Z,16.70
2019-04-05T17:29:08.643Z,16.70
2019-04-05T17:31:38.329Z,16.70
2019-04-05T17:34:07.942Z,16.70
2019-04-05T17:36:37.821Z,16.70
2019-04-05T17:39:08.957Z,16.70
2019-04-05T17:41:38.699Z,16.60
2019-04-05T17:44:08.367Z,16.70
2019-04-05T17:46:38.079Z,16.60
2019-04-05T17:49:08.388Z,16.60
2019-04-05T17:51:37.953Z,16.60
2019-04-05T17:54:07.625Z,16.60
2019-04-05T17:56:37.246Z,16.60
2019-04-05T17:59:06.837Z,16.60
2019-04-05T18:01:38.751Z,16.60
2019-04-05T18:04:07.857Z,16.60
2019-04-05T18:06:38.480Z,16.60
2019-04-05T18:09:08.181Z,16.50
2019-04-05T18:11:37.883Z,16.50
2019-04-05T18:14:07.559Z,16.50
2019-04-05T18:16:37.159Z,16.50
2019-04-05T18:19:06.829Z,16.50
2019-04-05T18:21:36.486Z,16.50
2019-04-05T18:24:06.101Z,16.50
2019-04-05T18:26:35.707Z,16.50
2019-04-05T18:29:05.279Z,16.50
2019-04-05T18:31:34.909Z,16.50
2019-04-05T18:34:04.531Z,16.40
2019-04-05T18:36:34.126Z,16.40
2019-04-05T18:39:06.196Z,16.40
2019-04-05T18:41:36.646Z,16.40
2019-04-05T18:44:06.251Z,16.40
2019-04-05T18:46:36.540Z,16.40
2019-04-05T18:49:06.140Z,16.40
2019-04-05T18:51:36.577Z,16.30
2019-04-05T18:54:06.155Z,16.30
2019-04-05T18:56:35.748Z,16.40
2019-04-05T18:59:05.482Z,16.30
2019-04-05T19:01:35.132Z,16.30
2019-04-05T19:04:05.674Z,16.30
2019-04-05T19:06:35.819Z,16.30
2019-04-05T19:09:08.395Z,16.30
2019-04-05T19:11:39.560Z,16.30
2019-04-05T19:14:09.153Z,16.30
2019-04-05T19:16:38.742Z,16.30
2019-04-05T19:19:08.320Z,16.30
2019-04-05T19:21:37.952Z,16.30
2019-04-05T19:24:09.631Z,16.30
2019-04-05T19:26:39.270Z,16.20
2019-04-05T19:29:08.881Z,16.20
2019-04-05T19:49:20.254Z,16.20
2019-04-05T19:51:49.862Z,16.10
2019-04-05T19:54:19.450Z,16.10
2019-04-05T19:56:49.041Z,16.10
2019-04-05T19:59:20.332Z,16.10
2019-04-05T20:01:49.939Z,16.20
2019-04-05T20:04:19.546Z,16.10
2019-04-05T20:06:58.154Z,16.10
2019-04-05T20:09:21.386Z,16.10
2019-04-05T20:11:50.965Z,16.10
2019-04-05T20:14:20.578Z,16.10
2019-04-05T20:16:51.170Z,16.10
2019-04-05T20:19:20.787Z,16.10
2019-04-05T20:21:50.348Z,16.10
2019-04-05T20:24:20.062Z,16.00
2019-04-05T20:26:49.682Z,16.00
2019-04-05T20:29:20.671Z,16.00
2019-04-05T20:31:50.570Z,16.00
2019-04-05T20:34:20.170Z,16.00
2019-04-05T20:36:49.754Z,16.00
2019-04-05T20:39:21.026Z,16.00
2019-04-05T20:41:50.882Z,16.00
2019-04-05T20:44:21.509Z,16.00
2019-04-05T20:46:51.136Z,16.00
2019-04-05T20:49:20.713Z,16.00
2019-04-05T20:51:50.302Z,16.00
2019-04-05T20:54:24.564Z,16.00
2019-04-05T20:56:51.134Z,16.00
2019-04-05T20:59:20.778Z,15.90
2019-04-05T21:01:50.362Z,15.90
2019-04-05T21:04:19.954Z,15.90
2019-04-05T21:06:49.525Z,15.90
2019-04-05T21:09:19.244Z,15.90
2019-04-05T21:11:48.845Z,15.90
2019-04-05T21:14:18.433Z,15.90
2019-04-05T21:16:48.023Z,15.90
2019-04-05T21:19:18.039Z,15.90
2019-04-05T21:21:47.676Z,15.90
2019-04-05T21:24:17.277Z,15.80
2019-04-05T21:26:46.819Z,15.80
2019-04-05T21:29:16.534Z,15.80
2019-04-05T21:31:46.178Z,15.80
2019-04-05T21:34:15.848Z,15.80
2019-04-05T21:36:45.596Z,15.80
2019-04-05T21:39:15.312Z,15.80
2019-04-05T21:41:45.052Z,15.80
2019-04-05T21:44:14.777Z,15.80
2019-04-05T21:46:44.456Z,15.80
2019-04-05T21:49:14.147Z,15.80
2019-04-05T21:51:46.268Z,15.80
2019-04-05T21:54:15.998Z,15.80
2019-04-05T21:56:45.723Z,15.80
2019-04-05T21:59:15.503Z,15.70
2019-04-05T22:01:45.263Z,15.70
2019-04-05T22:04:14.958Z,15.70
2019-04-05T22:06:46.241Z,15.70
2019-04-05T22:09:16.009Z,15.70
2019-04-05T22:11:45.691Z,15.70
2019-04-05T22:14:15.440Z,15.70
2019-04-05T22:16:45.168Z,15.70
2019-04-05T22:19:17.686Z,15.70
2019-04-05T22:21:47.852Z,15.70
2019-04-05T22:24:17.593Z,15.70
2019-04-05T22:26:47.272Z,15.60
2019-04-05T22:29:17.019Z,15.60
2019-04-05T22:31:47.806Z,15.60
2019-04-05T22:34:17.512Z,15.60
2019-04-05T22:36:47.200Z,15.60
2019-04-05T22:39:16.969Z,15.60
2019-04-05T22:41:49.820Z,15.60
2019-04-05T22:44:19.595Z,15.60
2019-04-05T22:46:49.309Z,15.60
2019-04-05T22:49:19.039Z,15.60
2019-04-05T22:51:48.788Z,15.60
2019-04-05T22:54:18.563Z,15.60
2019-04-05T22:56:48.242Z,15.60
2019-04-05T22:59:17.908Z,15.50
2019-04-05T23:01:47.622Z,15.50
2019-04-05T23:04:17.358Z,15.50
2019-04-05T23:06:50.394Z,15.50
2019-04-05T23:09:20.118Z,15.50
2019-04-05T23:11:49.784Z,15.50
2019-04-05T23:14:19.454Z,15.50
2019-04-05T23:16:49.170Z,15.50
2019-04-05T23:19:18.920Z,15.50
2019-04-05T23:21:48.695Z,15.50
2019-04-05T23:24:18.403Z,15.50
2019-04-05T23:26:48.111Z,15.50
2019-04-05T23:29:17.792Z,15.50
2019-04-05T23:31:47.488Z,15.50
2019-04-05T23:34:17.255Z,15.50
2019-04-05T23:36:47.010Z,15.50
2019-04-05T23:39:18.334Z,15.50
2019-04-05T23:41:47.998Z,15.40
2019-04-05T23:44:17.665Z,15.40
2019-04-05T23:46:47.342Z,15.40
2019-04-05T23:49:17.042Z,15.40
2019-04-05T23:51:47.756Z,15.40
2019-04-05T23:54:17.466Z,15.40
2019-04-05T23:56:47.140Z,15.40
2019-04-05T23:59:16.890Z,15.40
